createdAt,value
2018-09-21T00:00:39.576Z,99966.83
2018-09-21T00:03:08.677Z,99969.36
2018-09-21T00:05:36.708Z,99963.78
2018-09-21T00:08:04.904Z,99964.37
2018-09-21T00:10:32.906Z,99951.98
2018-09-21T00:13:00.914Z,99952.67
2018-09-21T00:15:29.125Z,99944.25
2018-09-21T00:17:57.375Z,99951.58
2018-09-21T00:20:25.352Z,99946.03
2018-09-21T00:22:53.449Z,99941.63
2018-09-21T00:25:21.627Z,99937.60
2018-09-21T00:27:49.656Z,99937.30
2018-09-21T00:30:17.719Z,99939.64
2018-09-21T00:32:45.758Z,99935.48
2018-09-21T00:35:13.756Z,99938.28
2018-09-21T00:37:42.349Z,99939.41
2018-09-21T00:40:10.352Z,99935.58
2018-09-21T00:42:38.349Z,99924.05
2018-09-21T00:45:06.422Z,99922.75
2018-09-21T00:47:34.463Z,99925.13
2018-09-21T00:50:02.469Z,99930.39
2018-09-21T00:52:30.480Z,99925.34
2018-09-21T00:54:58.501Z,99915.42
2018-09-21T00:57:26.532Z,99910.89
2018-09-21T00:59:54.568Z,99910.72
2018-09-21T01:02:22.572Z,99902.35
2018-09-21T01:04:50.591Z,99898.02
2018-09-21T01:07:18.618Z,99894.82
2018-09-21T01:09:46.616Z,99904.11
2018-09-21T01:12:14.658Z,99895.45
2018-09-21T01:14:42.708Z,99888.44
2018-09-21T01:17:10.738Z,99889.15
2018-09-21T01:19:38.778Z,99885.16
2018-09-21T01:22:06.822Z,99882.29
2018-09-21T01:24:34.815Z,99877.44
2018-09-21T01:27:02.809Z,99873.64
2018-09-21T01:29:30.845Z,99868.48
2018-09-21T01:31:58.862Z,99859.64
2018-09-21T01:34:26.882Z,99857.80
2018-09-21T01:36:54.942Z,99855.09
2018-09-21T01:39:22.956Z,99856.11
2018-09-21T01:41:50.973Z,99851.94
2018-09-21T01:44:19.085Z,99845.62
2018-09-21T01:46:47.097Z,99842.42
2018-09-21T01:49:15.184Z,99845.44
2018-09-21T01:51:43.373Z,99840.92
2018-09-21T01:54:11.388Z,99837.90
2018-09-21T01:56:39.415Z,99835.89
2018-09-21T01:59:07.521Z,99831.20
2018-09-21T02:01:35.535Z,99823.02
2018-09-21T02:04:03.588Z,99821.15
2018-09-21T02:06:31.665Z,99816.30
2018-09-21T02:08:59.688Z,99809.42
2018-09-21T02:11:27.684Z,99801.58
2018-09-21T02:13:55.795Z,99801.92
2018-09-21T02:16:23.813Z,99796.89
2018-09-21T02:18:51.864Z,99788.51
2018-09-21T02:21:19.865Z,99787.84
2018-09-21T02:23:47.952Z,99772.13
2018-09-21T02:26:15.945Z,99771.45
2018-09-21T02:28:43.987Z,99766.93
2018-09-21T02:31:11.977Z,99766.42
2018-09-21T02:33:39.992Z,99760.75
2018-09-21T02:36:08.045Z,99760.36
2018-09-21T02:38:36.065Z,99753.98
2018-09-21T02:41:04.072Z,99758.67
2018-09-21T02:43:32.135Z,99751.66
2018-09-21T02:46:00.157Z,99745.31
2018-09-21T02:48:28.162Z,99749.02
2018-09-21T02:50:56.203Z,99740.16
2018-09-21T02:53:25.242Z,99732.08
2018-09-21T02:55:53.234Z,99731.41
2018-09-21T02:58:21.229Z,99726.21
2018-09-21T03:00:49.379Z,99721.38
2018-09-21T03:03:17.252Z,99716.88
2018-09-21T03:05:45.323Z,99710.35
2018-09-21T03:08:13.312Z,99706.18
2018-09-21T03:10:41.360Z,99693.11
2018-09-21T03:13:09.452Z,99686.09
2018-09-21T03:15:37.441Z,99682.44
2018-09-21T03:18:05.493Z,99681.45
2018-09-21T03:20:33.499Z,99673.17
2018-09-21T03:23:01.501Z,99673.37
2018-09-21T03:25:29.581Z,99678.53
2018-09-21T03:27:57.613Z,99680.06
2018-09-21T03:30:25.604Z,99667.52
2018-09-21T03:32:53.593Z,99667.67
2018-09-21T03:35:21.723Z,99661.58
2018-09-21T03:37:49.687Z,99646.71
2018-09-21T03:40:17.697Z,99647.88
2018-09-21T03:42:45.748Z,99643.55
2018-09-21T03:45:13.771Z,99631.66
2018-09-21T03:47:41.856Z,99625.63
2018-09-21T03:50:09.869Z,99621.63
2018-09-21T03:52:37.900Z,99618.11
2018-09-21T03:55:06.480Z,99611.57
2018-09-21T03:57:34.568Z,99605.87
2018-09-21T04:00:02.580Z,99601.64
2018-09-21T04:02:30.630Z,99600.81
2018-09-21T04:04:58.649Z,99590.67
2018-09-21T04:07:26.647Z,99582.64
2018-09-21T04:09:54.665Z,99575.95
2018-09-21T04:12:22.730Z,99559.16
2018-09-21T04:14:50.779Z,99550.66
2018-09-21T04:17:18.764Z,99545.91
2018-09-21T04:19:46.791Z,99539.34
2018-09-21T04:22:14.812Z,99536.14
2018-09-21T04:24:42.819Z,99527.59
2018-09-21T04:27:10.817Z,99525.12
2018-09-21T04:29:38.845Z,99521.62
2018-09-21T04:32:06.881Z,99523.98
2018-09-21T04:34:35.043Z,99523.47
2018-09-21T04:37:03.041Z,99518.34
2018-09-21T04:39:31.109Z,99515.72
2018-09-21T04:41:59.131Z,99505.97
2018-09-21T04:44:27.137Z,99500.88
2018-09-21T04:46:55.208Z,99491.78
2018-09-21T04:49:23.220Z,99483.53
2018-09-21T04:51:51.244Z,99481.83
2018-09-21T04:54:19.260Z,99476.52
2018-09-21T04:56:47.276Z,99472.58
2018-09-21T04:59:15.377Z,99467.59
2018-09-21T05:01:43.404Z,99466.94
2018-09-21T05:04:11.413Z,99470.31
2018-09-21T05:06:39.412Z,99459.73
2018-09-21T05:09:09.580Z,99460.94
2018-09-21T05:11:37.597Z,99445.09
2018-09-21T05:14:05.666Z,99447.08
2018-09-21T05:16:33.693Z,99444.81
2018-09-21T05:19:01.713Z,99434.47
2018-09-21T05:21:29.705Z,99440.41
2018-09-21T05:23:57.717Z,99430.83
2018-09-21T05:26:25.776Z,99427.70
2018-09-21T05:28:53.846Z,99427.36
2018-09-21T05:31:22.919Z,99422.95
2018-09-21T05:33:50.940Z,99417.48
2018-09-21T05:36:19.019Z,99419.84
2018-09-21T05:38:47.224Z,99415.10
2018-09-21T05:41:15.425Z,99407.66
2018-09-21T05:43:43.433Z,99412.39
2018-09-21T05:46:11.445Z,99398.85
2018-09-21T05:48:39.623Z,99402.25
2018-09-21T05:51:07.705Z,99391.76
2018-09-21T05:53:35.789Z,99384.90
2018-09-21T05:56:03.868Z,99384.63
2018-09-21T05:58:31.801Z,99383.62
2018-09-21T06:00:59.833Z,99389.78
2018-09-21T06:03:29.088Z,99386.20
2018-09-21T06:05:57.129Z,99378.04
2018-09-21T06:08:25.161Z,99385.26
2018-09-21T06:10:53.251Z,99370.53
2018-09-21T06:13:21.356Z,99366.44
2018-09-21T06:15:49.420Z,99366.80
2018-09-21T06:18:18.069Z,99360.81
2018-09-21T06:20:46.101Z,99355.56
2018-09-21T06:23:14.142Z,99351.46
2018-09-21T06:25:42.209Z,99349.82
2018-09-21T06:28:10.261Z,99337.83
2018-09-21T06:30:38.264Z,99340.15
2018-09-21T06:33:06.297Z,99345.89
2018-09-21T06:35:35.374Z,99341.30
2018-09-21T06:38:03.399Z,99336.25
2018-09-21T06:40:31.433Z,99335.91
2018-09-21T06:42:59.645Z,99323.99
2018-09-21T06:45:27.716Z,99324.76
2018-09-21T06:47:55.712Z,99325.13
2018-09-21T06:50:23.709Z,99327.47
2018-09-21T06:52:51.967Z,99326.12
2018-09-21T06:55:20.094Z,99319.72
2018-09-21T06:57:49.132Z,99328.98
2018-09-21T07:00:17.323Z,99331.89
2018-09-21T07:02:45.347Z,99330.45
2018-09-21T07:05:14.594Z,99330.29
2018-09-21T07:07:42.967Z,99319.97
2018-09-21T07:10:11.521Z,99326.43
2018-09-21T07:12:39.649Z,99320.57
2018-09-21T07:15:08.047Z,99317.20
2018-09-21T07:17:36.113Z,99309.32
2018-09-21T07:20:04.477Z,99305.80
2018-09-21T07:22:32.565Z,99309.05
2018-09-21T07:25:00.731Z,99297.00
2018-09-21T07:27:28.899Z,99307.09
2018-09-21T07:29:58.020Z,99295.78
2018-09-21T07:32:26.229Z,99305.09
2018-09-21T07:34:54.879Z,99307.22
2018-09-21T07:37:22.926Z,99300.33
2018-09-21T07:39:50.916Z,99298.42
2018-09-21T07:42:18.947Z,99291.65
2018-09-21T07:44:46.933Z,99293.98
2018-09-21T07:47:14.953Z,99300.41
2018-09-21T07:49:43.101Z,99303.61
2018-09-21T07:52:11.244Z,99291.70
2018-09-21T07:54:39.251Z,99292.69
2018-09-21T07:57:07.344Z,99299.06
2018-09-21T07:59:35.373Z,99297.82
2018-09-21T08:02:03.380Z,99313.56
2018-09-21T08:04:31.417Z,99294.15
2018-09-21T08:06:59.593Z,99294.70
2018-09-21T08:09:27.640Z,99291.08
2018-09-21T08:11:55.700Z,99293.53
2018-09-21T08:14:23.781Z,99282.69
2018-09-21T08:16:51.813Z,99308.70
2018-09-21T08:19:19.865Z,99305.98
2018-09-21T08:21:47.865Z,99301.17
2018-09-21T08:24:16.072Z,99307.87
2018-09-21T08:26:44.232Z,99312.21
2018-09-21T08:29:12.337Z,99314.19
2018-09-21T08:31:40.385Z,99307.47
2018-09-21T08:34:08.394Z,99308.23
2018-09-21T08:36:36.425Z,99318.13
2018-09-21T08:39:06.990Z,99314.25
2018-09-21T08:41:35.017Z,99317.48
2018-09-21T08:44:03.162Z,99305.23
2018-09-21T08:46:31.164Z,99314.01
2018-09-21T08:48:59.184Z,99309.67
2018-09-21T08:51:27.201Z,99309.45
2018-09-21T08:53:55.217Z,99322.01
2018-09-21T08:56:23.241Z,99325.06
2018-09-21T08:58:51.287Z,99326.66
2018-09-21T09:01:19.284Z,99328.90
2018-09-21T09:03:47.425Z,99330.17
2018-09-21T09:06:15.489Z,99335.36
2018-09-21T09:08:43.545Z,99323.27
2018-09-21T09:11:11.617Z,99322.28
2018-09-21T09:13:39.769Z,99338.16
2018-09-21T09:16:07.805Z,99319.13
2018-09-21T09:18:35.853Z,99337.72
2018-09-21T09:21:03.841Z,99313.72
2018-09-21T09:23:31.865Z,99302.98
2018-09-21T09:25:59.917Z,99298.95
2018-09-21T09:28:27.972Z,99307.52
2018-09-21T09:30:55.990Z,99310.38
2018-09-21T09:33:24.010Z,99315.49
2018-09-21T09:35:52.037Z,99307.94
2018-09-21T09:38:20.082Z,99287.83
2018-09-21T09:40:48.277Z,99274.88
2018-09-21T09:43:16.353Z,99276.63
2018-09-21T09:45:44.401Z,99274.16
2018-09-21T09:48:12.523Z,99267.30
2018-09-21T09:50:40.529Z,99256.48
2018-09-21T09:53:08.731Z,99252.81
2018-09-21T09:55:36.749Z,99248.31
2018-09-21T09:58:04.788Z,99244.20
2018-09-21T10:00:35.845Z,99240.20
2018-09-21T10:03:03.905Z,99233.67
2018-09-21T10:05:32.964Z,99226.77
2018-09-21T10:08:01.043Z,99207.38
2018-09-21T10:10:29.153Z,99201.22
2018-09-21T10:12:57.174Z,99201.44
2018-09-21T10:15:25.193Z,99203.25
2018-09-21T10:17:53.200Z,99203.03
2018-09-21T10:20:21.193Z,99205.59
2018-09-21T10:22:49.584Z,99208.47
2018-09-21T10:25:17.578Z,99209.73
2018-09-21T10:27:45.872Z,99214.74
2018-09-21T10:30:13.726Z,99237.98
2018-09-21T10:32:41.795Z,99240.06
2018-09-21T10:35:10.021Z,99244.95
2018-09-21T10:37:38.024Z,99246.47
2018-09-21T10:40:06.205Z,99270.80
2018-09-21T10:42:34.328Z,99298.48
2018-09-21T10:45:02.309Z,99340.54
2018-09-21T10:47:30.320Z,99402.33
2018-09-21T10:49:58.366Z,99407.53
2018-09-21T10:52:26.357Z,99409.82
2018-09-21T10:54:54.441Z,99422.38
2018-09-21T10:57:22.477Z,99433.81
2018-09-21T10:59:50.489Z,99447.92
2018-09-21T11:02:18.529Z,99445.92
2018-09-21T11:04:46.540Z,99451.98
2018-09-21T11:07:14.642Z,99452.07
2018-09-21T11:09:42.713Z,99479.51
2018-09-21T11:12:10.719Z,99499.36
2018-09-21T11:14:38.756Z,99522.60
2018-09-21T11:17:06.948Z,99518.94
2018-09-21T11:19:35.072Z,99524.45
2018-09-21T11:22:03.077Z,99519.60
2018-09-21T11:24:31.105Z,99520.28
2018-09-21T11:26:59.137Z,99522.61
2018-09-21T11:29:27.214Z,99531.25
2018-09-21T11:31:55.201Z,99525.38
2018-09-21T11:34:23.237Z,99531.90
2018-09-21T11:36:51.256Z,99529.21
2018-09-21T11:39:19.273Z,99519.02
2018-09-21T11:41:47.296Z,99521.59
2018-09-21T11:44:15.317Z,99527.75
2018-09-21T11:46:43.355Z,99527.46
2018-09-21T11:49:11.345Z,99530.30
2018-09-21T11:51:39.357Z,99526.61
2018-09-21T11:54:07.379Z,99538.31
2018-09-21T11:56:35.377Z,99549.67
2018-09-21T11:59:03.412Z,99546.66
2018-09-21T12:01:31.417Z,99547.65
2018-09-21T12:03:59.449Z,99556.33
2018-09-21T12:06:27.500Z,99558.47
2018-09-21T12:08:55.521Z,99562.44
2018-09-21T12:11:23.575Z,99578.29
2018-09-21T12:13:51.599Z,99572.05
2018-09-21T12:16:19.605Z,99571.49
2018-09-21T12:18:47.600Z,99577.11
2018-09-21T12:21:15.593Z,99564.13
2018-09-21T12:23:43.597Z,99587.38
2018-09-21T12:26:11.602Z,99580.83
2018-09-21T12:28:39.609Z,99571.32
2018-09-21T12:31:07.776Z,99564.38
2018-09-21T12:33:36.073Z,99569.17
2018-09-21T12:36:04.566Z,99550.33
2018-09-21T12:38:32.686Z,99566.47
2018-09-21T12:41:00.656Z,99566.48
2018-09-21T12:43:28.669Z,99561.16
2018-09-21T12:45:56.694Z,99577.86
2018-09-21T12:48:24.668Z,99596.61
2018-09-21T12:50:52.748Z,99600.16
2018-09-21T12:53:20.721Z,99585.44
2018-09-21T12:55:48.782Z,99586.80
2018-09-21T12:58:16.864Z,99577.00
2018-09-21T13:00:50.772Z,99575.70
2018-09-21T13:03:18.897Z,99574.20
2018-09-21T13:05:46.949Z,99591.39
2018-09-21T13:08:15.012Z,99602.55
2018-09-21T13:10:43.073Z,99581.03
2018-09-21T13:13:11.110Z,99593.22
2018-09-21T13:15:39.153Z,99591.87
2018-09-21T13:18:08.096Z,99596.37
2018-09-21T13:20:36.320Z,99604.23
2018-09-21T13:23:04.396Z,99618.58
2018-09-21T13:25:32.534Z,99640.28
2018-09-21T13:28:00.557Z,99625.89
2018-09-21T13:30:28.598Z,99625.45
2018-09-21T13:32:56.581Z,99640.63
2018-09-21T13:35:25.379Z,99618.36
2018-09-21T13:37:53.433Z,99619.29
2018-09-21T13:40:21.510Z,99628.91
2018-09-21T13:42:49.512Z,99631.61
2018-09-21T13:45:17.593Z,99635.11
2018-09-21T13:47:45.577Z,99643.73
2018-09-21T13:50:13.581Z,99658.25
2018-09-21T13:52:41.629Z,99660.63
2018-09-21T13:55:09.665Z,99667.25
2018-09-21T13:57:37.676Z,99662.86
2018-09-21T14:00:06.136Z,99665.33
2018-09-21T14:02:34.173Z,99667.10
2018-09-21T14:05:02.176Z,99668.73
2018-09-21T14:07:30.194Z,99667.16
2018-09-21T14:09:58.208Z,99674.02
2018-09-21T14:12:26.184Z,99684.81
2018-09-21T14:14:54.374Z,99691.40
2018-09-21T14:17:22.373Z,99692.64
2018-09-21T14:19:50.392Z,99689.19
2018-09-21T14:22:18.385Z,99700.64
2018-09-21T14:24:46.370Z,99691.45
2018-09-21T14:27:14.492Z,99690.66
2018-09-21T14:29:42.691Z,99699.76
2018-09-21T14:32:10.968Z,99703.21
2018-09-21T14:34:38.976Z,99706.43
2018-09-21T14:37:07.204Z,99709.01
2018-09-21T14:39:35.234Z,99706.80
2018-09-21T14:42:03.254Z,99715.67
2018-09-21T14:44:31.272Z,99723.57
2018-09-21T14:46:59.344Z,99721.36
2018-09-21T14:49:27.384Z,99720.07
2018-09-21T14:51:55.403Z,99720.08
2018-09-21T14:54:23.404Z,99730.45
2018-09-21T14:56:51.429Z,99730.23
2018-09-21T14:59:19.444Z,99724.20
2018-09-21T15:01:47.458Z,99719.94
2018-09-21T15:04:15.542Z,99726.97
2018-09-21T15:06:43.561Z,99738.64
2018-09-21T15:09:11.997Z,99754.78
2018-09-21T15:11:40.797Z,99757.30
2018-09-21T15:14:09.075Z,99769.00
2018-09-21T15:16:37.529Z,99760.72
2018-09-21T15:19:05.445Z,99769.23
2018-09-21T15:21:33.628Z,99772.87
2018-09-21T15:24:01.643Z,99766.47
2018-09-21T15:26:29.668Z,99775.01
2018-09-21T15:28:57.700Z,99772.19
2018-09-21T15:31:25.758Z,99776.91
2018-09-21T15:33:53.777Z,99761.42
2018-09-21T15:36:22.057Z,99766.91
2018-09-21T15:38:50.229Z,99771.57
2018-09-21T15:41:18.306Z,99788.86
2018-09-21T15:43:46.578Z,99768.02
2018-09-21T15:46:14.586Z,99776.81
2018-09-21T15:48:42.766Z,99775.01
2018-09-21T15:51:10.771Z,99774.75
2018-09-21T15:53:38.785Z,99775.60
2018-09-21T15:56:06.810Z,99772.73
2018-09-21T15:58:34.845Z,99772.70
2018-09-21T16:01:02.922Z,99774.03
2018-09-21T16:03:30.925Z,99782.86
2018-09-21T16:05:58.953Z,99791.71
2018-09-21T16:08:26.961Z,99801.41
2018-09-21T16:10:55.005Z,99797.80
2018-09-21T16:13:23.018Z,99796.44
2018-09-21T16:15:51.024Z,99797.97
2018-09-21T16:18:19.036Z,99803.75
2018-09-21T16:20:47.029Z,99802.44
2018-09-21T16:23:15.041Z,99806.18
2018-09-21T16:25:43.190Z,99818.63
2018-09-21T16:28:11.184Z,99816.61
2018-09-21T16:30:39.187Z,99821.94
2018-09-21T16:33:07.205Z,99823.27
2018-09-21T16:35:35.217Z,99816.42
2018-09-21T16:38:03.359Z,99822.95
2018-09-21T16:40:31.418Z,99813.81
2018-09-21T16:42:59.422Z,99830.50
2018-09-21T16:45:27.433Z,99828.32
2018-09-21T16:47:55.626Z,99831.31
2018-09-21T16:50:23.730Z,99836.29
2018-09-21T16:52:51.773Z,99834.96
2018-09-21T16:55:19.847Z,99846.94
2018-09-21T16:57:47.849Z,99847.05
2018-09-21T17:00:15.852Z,99848.18
2018-09-21T17:02:43.872Z,99852.88
2018-09-21T17:05:11.912Z,99865.75
2018-09-21T17:07:39.897Z,99870.38
2018-09-21T17:10:07.933Z,99874.19
2018-09-21T17:12:35.974Z,99876.38
2018-09-21T17:15:03.972Z,99883.27
2018-09-21T17:17:31.994Z,99885.45
2018-09-21T17:20:00.010Z,99885.52
2018-09-21T17:22:28.035Z,99893.52
2018-09-21T17:24:56.021Z,99891.69
2018-09-21T17:27:24.017Z,99894.14
2018-09-21T17:29:52.001Z,99912.08
2018-09-21T17:32:20.165Z,99909.14
2018-09-21T17:34:48.236Z,99915.20
2018-09-21T17:37:16.393Z,99925.14
2018-09-21T17:39:44.429Z,99926.47
2018-09-21T17:42:12.456Z,99929.06
2018-09-21T17:44:40.472Z,99929.98
2018-09-21T17:47:08.489Z,99944.90
2018-09-21T17:49:36.496Z,99950.19
2018-09-21T17:52:04.617Z,99958.05
2018-09-21T17:54:32.672Z,99970.55
2018-09-21T17:57:00.798Z,99963.91
2018-09-21T17:59:28.828Z,99969.81
2018-09-21T18:01:56.843Z,99973.17
2018-09-21T18:04:24.838Z,99971.67
2018-09-21T18:06:52.873Z,99984.77
2018-09-21T18:09:20.888Z,99978.08
2018-09-21T18:11:48.898Z,99980.66
2018-09-21T18:14:16.908Z,99983.03
2018-09-21T18:16:44.913Z,99984.00
2018-09-21T18:19:12.939Z,99991.36
2018-09-21T18:21:40.908Z,99989.19
2018-09-21T18:24:09.056Z,99996.41
2018-09-21T18:26:37.268Z,99998.80
2018-09-21T18:29:05.782Z,100000.04
2018-09-21T18:31:33.838Z,100010.95
2018-09-21T18:34:01.836Z,100014.25
2018-09-21T18:36:29.883Z,100022.12
2018-09-21T18:38:58.076Z,100015.41
2018-09-21T18:41:26.070Z,100034.11
2018-09-21T18:43:54.185Z,100030.62
2018-09-21T18:46:22.141Z,100044.84
2018-09-21T18:48:50.169Z,100044.96
2018-09-21T18:51:18.174Z,100044.66
2018-09-21T18:53:46.194Z,100047.53
2018-09-21T18:56:14.211Z,100048.73
2018-09-21T18:58:42.229Z,100047.92
2018-09-21T19:01:10.258Z,100048.91
2018-09-21T19:03:38.295Z,100053.95
2018-09-21T19:06:06.433Z,100054.20
2018-09-21T19:08:34.448Z,100069.98
2018-09-21T19:11:02.565Z,100171.97
2018-09-21T19:13:30.536Z,100247.25
2018-09-21T19:15:58.537Z,100242.08
2018-09-21T19:18:26.553Z,100249.75
2018-09-21T19:20:54.566Z,100256.50
2018-09-21T19:23:22.578Z,100253.67
2018-09-21T19:25:50.661Z,100236.46
2018-09-21T19:28:18.660Z,100217.41
2018-09-21T19:30:46.692Z,100207.66
2018-09-21T19:33:14.704Z,100188.92
2018-09-21T19:35:42.739Z,100193.34
2018-09-21T19:38:10.749Z,100187.00
2018-09-21T19:40:38.801Z,100186.56
2018-09-21T19:43:07.171Z,100191.97
2018-09-21T19:45:35.122Z,100202.61
2018-09-21T19:48:03.190Z,100183.91
2018-09-21T19:50:31.207Z,100193.11
2018-09-21T19:52:59.291Z,100183.30
2018-09-21T19:55:27.259Z,100190.55
2018-09-21T19:57:55.281Z,100177.53
2018-09-21T20:00:23.317Z,100178.70
2018-09-21T20:02:51.362Z,100185.00
2018-09-21T20:05:19.393Z,100198.20
2018-09-21T20:07:47.414Z,100199.70
2018-09-21T20:10:15.456Z,100193.19
2018-09-21T20:12:43.706Z,100195.53
2018-09-21T20:15:11.724Z,100207.09
2018-09-21T20:17:39.728Z,100205.87
2018-09-21T20:20:07.738Z,100203.79
2018-09-21T20:22:35.745Z,100200.19
2018-09-21T20:25:03.747Z,100202.64
2018-09-21T20:27:31.734Z,100204.25
2018-09-21T20:30:05.144Z,100208.03
2018-09-21T20:32:38.517Z,100217.16
2018-09-21T20:35:06.518Z,100221.41
2018-09-21T20:37:34.554Z,100223.67
2018-09-21T20:40:02.740Z,100224.05
2018-09-21T20:42:30.797Z,100221.54
2018-09-21T20:44:58.805Z,100218.70
2018-09-21T20:47:26.827Z,100216.15
2018-09-21T20:49:54.828Z,100223.02
2018-09-21T20:52:23.211Z,100221.82
2018-09-21T20:54:51.345Z,100225.40
2018-09-21T20:57:19.350Z,100224.74
2018-09-21T20:59:47.451Z,100224.05
2018-09-21T21:02:15.490Z,100230.91
2018-09-21T21:04:43.568Z,100238.75
2018-09-21T21:07:11.554Z,100230.56
2018-09-21T21:09:39.588Z,100233.25
2018-09-21T21:12:07.709Z,100224.05
2018-09-21T21:14:35.748Z,100227.05
2018-09-21T21:19:26.808Z,100221.56
2018-09-21T21:21:55.165Z,100212.83
2018-09-21T21:24:23.229Z,100232.43
2018-09-21T21:26:51.408Z,100223.55
2018-09-21T21:29:19.436Z,100224.86
2018-09-21T21:31:47.982Z,100234.11
2018-09-21T21:34:16.120Z,100238.14
2018-09-21T21:36:44.178Z,100227.66
2018-09-21T21:39:12.181Z,100237.98
2018-09-21T21:41:42.201Z,100237.34
2018-09-21T21:44:10.445Z,100242.53
2018-09-21T21:46:38.529Z,100236.63
2018-09-21T21:49:06.629Z,100246.20
2018-09-21T21:51:34.713Z,100249.07
2018-09-21T21:54:02.933Z,100259.05
2018-09-21T21:56:30.947Z,100255.42
2018-09-21T21:58:59.467Z,100261.45
2018-09-21T22:01:33.006Z,100255.58
2018-09-21T22:04:01.083Z,100264.77
2018-09-21T22:06:29.090Z,100262.06
2018-09-21T22:08:57.079Z,100262.62
2018-09-21T22:11:30.593Z,100269.30
2018-09-21T22:14:05.052Z,100273.40
2018-09-21T22:16:33.073Z,100277.59
2018-09-21T22:19:01.114Z,100270.75
2018-09-21T22:21:29.333Z,100272.52
2018-09-21T22:23:57.508Z,100261.23
2018-09-21T22:26:25.621Z,100262.98
2018-09-21T22:28:53.658Z,100246.34
2018-09-21T22:31:21.656Z,100242.34
2018-09-21T22:33:49.660Z,100240.86
2018-09-21T22:36:17.776Z,100248.18
2018-09-21T22:38:45.886Z,100255.41
2018-09-21T22:41:13.893Z,100257.56
2018-09-21T22:43:41.961Z,100253.36
2018-09-21T22:46:09.981Z,100264.02
2018-09-21T22:48:38.045Z,100257.59
2018-09-21T22:51:06.050Z,100259.20
2018-09-21T22:53:34.074Z,100263.85
2018-09-21T22:56:02.081Z,100262.50
2018-09-21T22:58:30.084Z,100249.08
2018-09-21T23:00:58.189Z,100242.92
2018-09-21T23:03:26.181Z,100249.14
2018-09-21T23:05:54.209Z,100249.65
2018-09-21T23:08:22.235Z,100259.06
2018-09-21T23:10:50.257Z,100263.39
2018-09-21T23:13:18.356Z,100267.78
2018-09-21T23:15:46.357Z,100265.91
2018-09-21T23:18:14.381Z,100277.06
2018-09-21T23:20:42.378Z,100279.41
2018-09-21T23:23:10.398Z,100279.83
2018-09-21T23:25:38.472Z,100281.35
2018-09-21T23:28:06.485Z,100299.08
2018-09-21T23:30:34.507Z,100304.54
2018-09-21T23:33:02.592Z,100301.45
2018-09-21T23:35:30.607Z,100305.81
2018-09-21T23:37:58.890Z,100305.06
2018-09-21T23:40:26.942Z,100309.92
2018-09-21T23:42:54.992Z,100300.93
2018-09-21T23:45:23.000Z,100295.81
2018-09-21T23:47:51.025Z,100295.70
2018-09-21T23:50:19.253Z,100295.87
2018-09-21T23:52:47.272Z,100286.31
2018-09-21T23:55:15.299Z,100290.89
2018-09-21T23:57:43.323Z,100293.23
